KALB/ALB METAR and TAF weather

Enter ICAO airport designator
Station Type Date Time Source
KALB METAR 2019/02/20 06:51 UTC NOAA

KALB 200651Z 00000KT 10SM BKN260 M12/M16 A3061 RMK AO2 SLP371 T11171161


Station Type Date Time Source
KALB Decoded METAR 2019/02/20 06:51 UTC NOAA

ALBANY INTERNATIONAL AIRPORT, NY, United States (KALB) 42-45N 73-48W
Feb 20, 2019 - 01:51 AM EST / 2019.02.20 0651 UTC
Wind: Calm:0
Visibility: 10 mile(s):0
Sky conditions: mostly cloudy
Temperature: 10.9 F (-11.7 C)
Dew Point: 3.0 F (-16.1 C)
Relative Humidity: 69%
Pressure (altimeter): 30.61 in. Hg (1036 hPa)
ob: KALB 200651Z 00000KT 10SM BKN260 M12/M16 A3061 RMK AO2 SLP371 T11171161
cycle: 7

Station Type Date Time Source
KALB TAF 2019/02/20 06:40 UTC NOAA

TAF KALB 200538Z 2006/2106 VRB03KT P6SM SCT250
FM201500 17004KT P6SM BKN250
FM201800 17008KT P6SM BKN100 BKN250
FM202000 16007KT P6SM VCSH BKN050 OVC080
FM202300 15006KT 3SM -SN BR OVC010
FM210400 15006KT 3SM -PLSN OVC010


Example: see airport list